Mobile Downtown Airport
KBFM : now visible

Airfield :











YOU CAN JOIN US ON...

 
LOGIN :

Register | Disclaimer

   EN    FR    IT 

 









Legend :    VFR   Marginal VFR   IFR   Intensive IFR   Very Intensive IFR
Visi :
Ceiling :
>= 8 km
>= 3000ft
5 to 8 km
1000 to 3000 ft
1500m to 5 km
500 to 1000 ft
800 to 1500m
200 to 500 ft
< 800m
< 200 ft
Symbols :   Thunderstorms  Fog  Heavy snow  Heavy precipitations  Wind > 20 kt






- Airport Elevation : 26 ft


KBFM - Mobile Downtown

CURRENT METAR :
  • 250453Z AUTO 19005KT 10SM CLR 27/23 A2991 RMK AO2 SLP128 T02720233

EXPIRED METARs :
  • 250353Z AUTO 19004KT 10SM CLR 27/23 A2991 RMK AO2 SLP126 T02670233
  • 250253Z AUTO 20004KT 10SM CLR 27/23 A2991 RMK AO2 SLP128 T02720233 53010
  • 250153Z 18003KT 10SM CLR 27/23 A2989 RMK AO2 SLP122 T02720228
  • 250053Z COR 19006KT 10SM FEW030 28/22 A2989 RMK AO2 SLP122 T02780222

TAF KBFM
Valid from the 25 at 06:00 until the 26 at 06:00 UTC


250520Z 2506/2606 19005KT P6SM BKN200
FM251500 18006KT P6SM SCT025 BKN200
FM251800 15010KT P6SM SCT035
FM252100 17008KT P6SM SCT250
FM260000 18004KT P6SM BKN250
KZHU FIR / North America



MET'MAP, your aeronautical weather chart ! - Copyright ORBIFLY December 2007 - Disclaimer

ORBIFLY MET'MAP TEAM :

Programming & Development : Alexandra Zaïnal
Original concept : Baudouin d'Aumeries
Technical & hardware support : Manuel Goepfert
Assistance : Marc-Olivier Méhu




SOURCES & CREDITS :

   NOAA       Earth
Advisory